sensor_id;sensor_type;location;lat;lon;timestamp;temperature;humidity
85176;SHT31;75548;42.444;27.488;2024-02-04T00:03:07;2.13;74.41
85176;SHT31;75548;42.444;27.488;2024-02-04T00:06:32;2.15;74.34
85176;SHT31;75548;42.444;27.488;2024-02-04T00:09:57;2.15;74.09
85176;SHT31;75548;42.444;27.488;2024-02-04T00:13:23;2.23;73.75
85176;SHT31;75548;42.444;27.488;2024-02-04T00:16:48;2.23;73.62
85176;SHT31;75548;42.444;27.488;2024-02-04T00:20:14;2.09;74.10
85176;SHT31;75548;42.444;27.488;2024-02-04T00:23:39;2.08;74.28
85176;SHT31;75548;42.444;27.488;2024-02-04T00:27:04;2.03;74.42
85176;SHT31;75548;42.444;27.488;2024-02-04T00:30:30;1.95;74.57
85176;SHT31;75548;42.444;27.488;2024-02-04T00:33:55;1.94;74.67
85176;SHT31;75548;42.444;27.488;2024-02-04T00:37:21;1.92;74.90
85176;SHT31;75548;42.444;27.488;2024-02-04T00:40:46;1.92;74.88
85176;SHT31;75548;42.444;27.488;2024-02-04T00:44:11;1.88;74.88
85176;SHT31;75548;42.444;27.488;2024-02-04T00:47:37;1.89;74.62
85176;SHT31;75548;42.444;27.488;2024-02-04T00:51:02;1.74;74.89
85176;SHT31;75548;42.444;27.488;2024-02-04T00:54:28;1.82;74.88
85176;SHT31;75548;42.444;27.488;2024-02-04T00:57:53;1.71;74.94
85176;SHT31;75548;42.444;27.488;2024-02-04T01:01:18;1.71;75.17
85176;SHT31;75548;42.444;27.488;2024-02-04T01:04:44;1.68;75.00
85176;SHT31;75548;42.444;27.488;2024-02-04T01:08:09;1.67;75.18
85176;SHT31;75548;42.444;27.488;2024-02-04T01:11:35;1.65;75.37
85176;SHT31;75548;42.444;27.488;2024-02-04T01:15:00;1.58;75.57
85176;SHT31;75548;42.444;27.488;2024-02-04T01:18:25;1.57;75.79
85176;SHT31;75548;42.444;27.488;2024-02-04T01:21:51;1.68;75.48
85176;SHT31;75548;42.444;27.488;2024-02-04T01:25:16;1.74;75.20
85176;SHT31;75548;42.444;27.488;2024-02-04T01:28:41;1.77;75.17
85176;SHT31;75548;42.444;27.488;2024-02-04T01:32:07;1.74;75.09
85176;SHT31;75548;42.444;27.488;2024-02-04T01:35:32;1.71;75.21
85176;SHT31;75548;42.444;27.488;2024-02-04T01:38:58;1.81;74.82
85176;SHT31;75548;42.444;27.488;2024-02-04T01:42:23;1.69;75.26
85176;SHT31;75548;42.444;27.488;2024-02-04T01:45:50;1.67;75.48
85176;SHT31;75548;42.444;27.488;2024-02-04T01:49:14;1.67;75.30
85176;SHT31;75548;42.444;27.488;2024-02-04T01:52:39;1.62;75.37
85176;SHT31;75548;42.444;27.488;2024-02-04T01:56:05;1.58;75.67
85176;SHT31;75548;42.444;27.488;2024-02-04T01:59:30;1.52;76.01
85176;SHT31;75548;42.444;27.488;2024-02-04T02:02:56;1.61;75.88
85176;SHT31;75548;42.444;27.488;2024-02-04T02:06:21;1.57;75.84
85176;SHT31;75548;42.444;27.488;2024-02-04T02:09:47;1.48;76.50
85176;SHT31;75548;42.444;27.488;2024-02-04T02:13:20;1.47;76.55
85176;SHT31;75548;42.444;27.488;2024-02-04T02:16:44;1.54;76.52
85176;SHT31;75548;42.444;27.488;2024-02-04T02:20:30;1.55;76.60
85176;SHT31;75548;42.444;27.488;2024-02-04T02:27:03;1.71;76.07
85176;SHT31;75548;42.444;27.488;2024-02-04T02:30:29;1.64;76.60
85176;SHT31;75548;42.444;27.488;2024-02-04T02:33:54;1.58;77.06
85176;SHT31;75548;42.444;27.488;2024-02-04T02:40:23;1.75;77.06
85176;SHT31;75548;42.444;27.488;2024-02-04T02:43:47;1.71;77.38
85176;SHT31;75548;42.444;27.488;2024-02-04T02:47:12;1.65;77.65
85176;SHT31;75548;42.444;27.488;2024-02-04T02:50:38;1.61;77.70
85176;SHT31;75548;42.444;27.488;2024-02-04T02:54:03;1.58;77.99
85176;SHT31;75548;42.444;27.488;2024-02-04T02:57:41;1.55;78.03
85176;SHT31;75548;42.444;27.488;2024-02-04T03:01:07;1.58;78.00
85176;SHT31;75548;42.444;27.488;2024-02-04T03:04:33;1.52;78.21
85176;SHT31;75548;42.444;27.488;2024-02-04T03:07:58;1.64;77.86
85176;SHT31;75548;42.444;27.488;2024-02-04T03:11:23;1.67;78.13
85176;SHT31;75548;42.444;27.488;2024-02-04T03:14:49;1.77;77.71
85176;SHT31;75548;42.444;27.488;2024-02-04T03:18:14;1.88;77.63
85176;SHT31;75548;42.444;27.488;2024-02-04T03:21:40;1.96;77.76
85176;SHT31;75548;42.444;27.488;2024-02-04T03:25:05;2.13;77.50
85176;SHT31;75548;42.444;27.488;2024-02-04T03:28:31;2.25;77.14
85176;SHT31;75548;42.444;27.488;2024-02-04T03:31:57;2.29;77.06
85176;SHT31;75548;42.444;27.488;2024-02-04T03:35:22;2.32;76.82
85176;SHT31;75548;42.444;27.488;2024-02-04T03:38:47;2.43;76.22
85176;SHT31;75548;42.444;27.488;2024-02-04T03:42:13;2.43;76.37
85176;SHT31;75548;42.444;27.488;2024-02-04T03:45:38;2.47;76.17
85176;SHT31;75548;42.444;27.488;2024-02-04T03:49:04;2.46;76.07
85176;SHT31;75548;42.444;27.488;2024-02-04T03:52:29;2.48;76.03
85176;SHT31;75548;42.444;27.488;2024-02-04T03:55:55;2.64;75.68
85176;SHT31;75548;42.444;27.488;2024-02-04T03:59:21;2.58;75.49
85176;SHT31;75548;42.444;27.488;2024-02-04T04:02:46;2.56;75.74
85176;SHT31;75548;42.444;27.488;2024-02-04T04:06:11;2.58;76.01
85176;SHT31;75548;42.444;27.488;2024-02-04T04:09:37;2.65;75.90
85176;SHT31;75548;42.444;27.488;2024-02-04T04:13:02;2.67;75.96
85176;SHT31;75548;42.444;27.488;2024-02-04T04:16:28;2.71;75.59
85176;SHT31;75548;42.444;27.488;2024-02-04T04:19:53;2.74;75.62
85176;SHT31;75548;42.444;27.488;2024-02-04T04:23:18;2.74;75.57
85176;SHT31;75548;42.444;27.488;2024-02-04T04:26:44;2.74;75.45
85176;SHT31;75548;42.444;27.488;2024-02-04T04:30:09;2.68;75.58
85176;SHT31;75548;42.444;27.488;2024-02-04T04:33:35;2.71;75.28
85176;SHT31;75548;42.444;27.488;2024-02-04T04:37:00;2.62;75.72
85176;SHT31;75548;42.444;27.488;2024-02-04T04:40:26;2.61;75.91
85176;SHT31;75548;42.444;27.488;2024-02-04T04:43:51;2.60;76.05
85176;SHT31;75548;42.444;27.488;2024-02-04T04:47:16;2.60;76.07
85176;SHT31;75548;42.444;27.488;2024-02-04T04:50:42;2.65;75.85
85176;SHT31;75548;42.444;27.488;2024-02-04T04:54:07;2.65;75.95
85176;SHT31;75548;42.444;27.488;2024-02-04T04:57:33;2.65;76.52
85176;SHT31;75548;42.444;27.488;2024-02-04T05:00:58;2.73;76.49
85176;SHT31;75548;42.444;27.488;2024-02-04T05:04:23;2.77;76.67
85176;SHT31;75548;42.444;27.488;2024-02-04T05:07:49;2.84;76.71
85176;SHT31;75548;42.444;27.488;2024-02-04T05:11:14;2.98;76.77
85176;SHT31;75548;42.444;27.488;2024-02-04T05:14:40;3.09;76.82
85176;SHT31;75548;42.444;27.488;2024-02-04T05:18:05;3.15;76.66
85176;SHT31;75548;42.444;27.488;2024-02-04T05:21:30;3.23;76.26
85176;SHT31;75548;42.444;27.488;2024-02-04T05:24:56;3.36;76.00
85176;SHT31;75548;42.444;27.488;2024-02-04T05:28:21;3.42;75.77
85176;SHT31;75548;42.444;27.488;2024-02-04T05:31:47;3.29;76.27
85176;SHT31;75548;42.444;27.488;2024-02-04T05:35:12;3.35;76.26
85176;SHT31;75548;42.444;27.488;2024-02-04T05:38:37;3.44;76.46
85176;SHT31;75548;42.444;27.488;2024-02-04T05:42:03;3.30;76.81
85176;SHT31;75548;42.444;27.488;2024-02-04T05:45:28;3.33;77.09
85176;SHT31;75548;42.444;27.488;2024-02-04T05:48:54;3.39;76.81
85176;SHT31;75548;42.444;27.488;2024-02-04T05:52:19;3.53;76.68
85176;SHT31;75548;42.444;27.488;2024-02-04T05:55:45;3.62;76.75
85176;SHT31;75548;42.444;27.488;2024-02-04T05:59:10;3.70;76.72
85176;SHT31;75548;42.444;27.488;2024-02-04T06:02:35;3.74;76.73
85176;SHT31;75548;42.444;27.488;2024-02-04T06:06:01;3.67;76.93
85176;SHT31;75548;42.444;27.488;2024-02-04T06:09:26;3.75;76.40
85176;SHT31;75548;42.444;27.488;2024-02-04T06:12:51;3.74;76.60
85176;SHT31;75548;42.444;27.488;2024-02-04T06:16:17;3.85;76.04
85176;SHT31;75548;42.444;27.488;2024-02-04T06:19:42;3.90;75.99
85176;SHT31;75548;42.444;27.488;2024-02-04T06:23:08;4.15;75.27
85176;SHT31;75548;42.444;27.488;2024-02-04T06:26:33;4.19;74.69
85176;SHT31;75548;42.444;27.488;2024-02-04T06:29:58;4.36;74.31
85176;SHT31;75548;42.444;27.488;2024-02-04T06:33:24;4.39;73.89
85176;SHT31;75548;42.444;27.488;2024-02-04T06:36:49;4.42;74.20
85176;SHT31;75548;42.444;27.488;2024-02-04T06:40:15;4.43;74.84
85176;SHT31;75548;42.444;27.488;2024-02-04T06:43:40;4.49;75.21
85176;SHT31;75548;42.444;27.488;2024-02-04T06:47:05;4.73;74.67
85176;SHT31;75548;42.444;27.488;2024-02-04T06:50:31;4.87;74.33
85176;SHT31;75548;42.444;27.488;2024-02-04T06:53:56;4.95;73.76
85176;SHT31;75548;42.444;27.488;2024-02-04T06:57:22;5.15;73.28
85176;SHT31;75548;42.444;27.488;2024-02-04T07:00:47;5.27;73.32
85176;SHT31;75548;42.444;27.488;2024-02-04T07:04:13;5.43;72.18
85176;SHT31;75548;42.444;27.488;2024-02-04T07:07:38;5.59;71.24
85176;SHT31;75548;42.444;27.488;2024-02-04T07:11:03;5.76;70.86
85176;SHT31;75548;42.444;27.488;2024-02-04T07:14:29;5.83;70.83
85176;SHT31;75548;42.444;27.488;2024-02-04T07:17:54;5.87;70.85
85176;SHT31;75548;42.444;27.488;2024-02-04T07:21:20;5.87;70.99
85176;SHT31;75548;42.444;27.488;2024-02-04T07:24:45;6.06;70.28
85176;SHT31;75548;42.444;27.488;2024-02-04T07:28:10;6.22;69.79
85176;SHT31;75548;42.444;27.488;2024-02-04T07:31:36;6.07;70.40
85176;SHT31;75548;42.444;27.488;2024-02-04T07:35:01;5.93;71.65
85176;SHT31;75548;42.444;27.488;2024-02-04T07:37:49;5.94;71.78
85176;SHT31;75548;42.444;27.488;2024-02-04T07:40:35;6.10;71.55
85176;SHT31;75548;42.444;27.488;2024-02-04T07:44:00;6.20;71.06
85176;SHT31;75548;42.444;27.488;2024-02-04T07:47:25;6.13;71.12
85176;SHT31;75548;42.444;27.488;2024-02-04T07:50:51;6.32;70.63
85176;SHT31;75548;42.444;27.488;2024-02-04T07:54:16;6.41;70.51
85176;SHT31;75548;42.444;27.488;2024-02-04T07:57:42;6.58;69.95
85176;SHT31;75548;42.444;27.488;2024-02-04T08:01:07;6.75;69.50
85176;SHT31;75548;42.444;27.488;2024-02-04T08:04:33;6.99;69.00
85176;SHT31;75548;42.444;27.488;2024-02-04T08:07:58;7.24;68.54
85176;SHT31;75548;42.444;27.488;2024-02-04T08:11:23;7.56;67.91
85176;SHT31;75548;42.444;27.488;2024-02-04T08:14:49;7.82;67.37
85176;SHT31;75548;42.444;27.488;2024-02-04T08:18:14;8.00;67.03
85176;SHT31;75548;42.444;27.488;2024-02-04T08:21:39;7.99;67.04
85176;SHT31;75548;42.444;27.488;2024-02-04T08:25:05;8.07;66.88
85176;SHT31;75548;42.444;27.488;2024-02-04T08:28:31;8.20;66.40
85176;SHT31;75548;42.444;27.488;2024-02-04T08:31:56;8.43;65.94
85176;SHT31;75548;42.444;27.488;2024-02-04T08:35:21;8.68;64.87
85176;SHT31;75548;42.444;27.488;2024-02-04T08:38:46;8.65;65.11
85176;SHT31;75548;42.444;27.488;2024-02-04T08:42:12;8.78;64.68
85176;SHT31;75548;42.444;27.488;2024-02-04T08:45:37;8.72;64.65
85176;SHT31;75548;42.444;27.488;2024-02-04T08:49:03;8.67;65.17
85176;SHT31;75548;42.444;27.488;2024-02-04T08:52:28;8.86;64.88
85176;SHT31;75548;42.444;27.488;2024-02-04T08:55:53;8.74;65.23
85176;SHT31;75548;42.444;27.488;2024-02-04T08:59:34;8.71;65.61
85176;SHT31;75548;42.444;27.488;2024-02-04T09:03:00;8.64;66.11
85176;SHT31;75548;42.444;27.488;2024-02-04T09:06:25;8.69;66.07
85176;SHT31;75548;42.444;27.488;2024-02-04T09:09:51;8.69;65.78
85176;SHT31;75548;42.444;27.488;2024-02-04T09:13:16;8.76;65.87
85176;SHT31;75548;42.444;27.488;2024-02-04T09:16:41;8.96;65.31
85176;SHT31;75548;42.444;27.488;2024-02-04T09:20:07;9.10;64.94
85176;SHT31;75548;42.444;27.488;2024-02-04T09:23:32;9.50;64.00
85176;SHT31;75548;42.444;27.488;2024-02-04T09:26:58;9.94;62.99
85176;SHT31;75548;42.444;27.488;2024-02-04T09:30:23;10.09;62.60
85176;SHT31;75548;42.444;27.488;2024-02-04T09:33:48;10.29;62.17
85176;SHT31;75548;42.444;27.488;2024-02-04T09:37:14;10.28;62.12
85176;SHT31;75548;42.444;27.488;2024-02-04T09:40:39;10.32;61.23
85176;SHT31;75548;42.444;27.488;2024-02-04T09:44:05;10.35;61.54
85176;SHT31;75548;42.444;27.488;2024-02-04T09:47:30;10.49;61.47
85176;SHT31;75548;42.444;27.488;2024-02-04T09:50:55;10.63;61.30
85176;SHT31;75548;42.444;27.488;2024-02-04T09:54:21;10.78;60.63
85176;SHT31;75548;42.444;27.488;2024-02-04T09:57:46;10.70;60.70
85176;SHT31;75548;42.444;27.488;2024-02-04T10:01:12;10.74;60.83
85176;SHT31;75548;42.444;27.488;2024-02-04T10:04:37;10.87;60.84
85176;SHT31;75548;42.444;27.488;2024-02-04T10:08:03;10.87;60.82
85176;SHT31;75548;42.444;27.488;2024-02-04T10:11:28;11.01;60.26
85176;SHT31;75548;42.444;27.488;2024-02-04T10:14:53;11.24;59.81
85176;SHT31;75548;42.444;27.488;2024-02-04T10:18:19;11.39;59.29
85176;SHT31;75548;42.444;27.488;2024-02-04T10:21:44;11.55;58.79
85176;SHT31;75548;42.444;27.488;2024-02-04T10:25:10;11.69;58.80
85176;SHT31;75548;42.444;27.488;2024-02-04T10:28:35;11.66;59.10
85176;SHT31;75548;42.444;27.488;2024-02-04T10:32:00;11.84;59.13
85176;SHT31;75548;42.444;27.488;2024-02-04T10:35:26;11.97;58.83
85176;SHT31;75548;42.444;27.488;2024-02-04T10:38:51;12.18;58.84
85176;SHT31;75548;42.444;27.488;2024-02-04T10:42:17;12.16;58.59
85176;SHT31;75548;42.444;27.488;2024-02-04T10:45:42;12.10;58.96
85176;SHT31;75548;42.444;27.488;2024-02-04T10:49:11;12.13;59.06
85176;SHT31;75548;42.444;27.488;2024-02-04T10:52:36;12.18;59.03
85176;SHT31;75548;42.444;27.488;2024-02-04T10:55:41;12.20;59.11
85176;SHT31;75548;42.444;27.488;2024-02-04T10:58:28;12.18;59.19
85176;SHT31;75548;42.444;27.488;2024-02-04T11:01:54;12.28;59.02
85176;SHT31;75548;42.444;27.488;2024-02-04T11:05:19;12.38;58.78
85176;SHT31;75548;42.444;27.488;2024-02-04T11:08:44;12.27;58.79
85176;SHT31;75548;42.444;27.488;2024-02-04T11:12:11;12.34;59.04
85176;SHT31;75548;42.444;27.488;2024-02-04T11:15:36;12.35;58.87
85176;SHT31;75548;42.444;27.488;2024-02-04T11:19:37;12.27;59.06
85176;SHT31;75548;42.444;27.488;2024-02-04T11:26:03;12.27;59.14
85176;SHT31;75548;42.444;27.488;2024-02-04T11:29:28;12.28;59.13
85176;SHT31;75548;42.444;27.488;2024-02-04T11:32:53;12.21;59.52
85176;SHT31;75548;42.444;27.488;2024-02-04T11:36:23;12.35;59.09
85176;SHT31;75548;42.444;27.488;2024-02-04T11:39:50;12.32;58.88
85176;SHT31;75548;42.444;27.488;2024-02-04T11:43:15;12.35;59.26
85176;SHT31;75548;42.444;27.488;2024-02-04T11:46:45;12.32;59.27
85176;SHT31;75548;42.444;27.488;2024-02-04T11:50:06;12.49;58.88
85176;SHT31;75548;42.444;27.488;2024-02-04T11:53:31;12.56;58.57
85176;SHT31;75548;42.444;27.488;2024-02-04T11:56:57;12.75;58.07
85176;SHT31;75548;42.444;27.488;2024-02-04T12:00:22;12.73;57.64
85176;SHT31;75548;42.444;27.488;2024-02-04T12:03:48;12.70;57.94
85176;SHT31;75548;42.444;27.488;2024-02-04T12:07:13;12.73;57.35
85176;SHT31;75548;42.444;27.488;2024-02-04T12:10:38;12.75;57.55
85176;SHT31;75548;42.444;27.488;2024-02-04T12:14:04;12.75;57.91
85176;SHT31;75548;42.444;27.488;2024-02-04T12:17:29;12.76;57.67
85176;SHT31;75548;42.444;27.488;2024-02-04T12:20:55;12.53;58.09
85176;SHT31;75548;42.444;27.488;2024-02-04T12:24:20;12.52;58.29
85176;SHT31;75548;42.444;27.488;2024-02-04T12:27:45;12.59;57.96
85176;SHT31;75548;42.444;27.488;2024-02-04T12:31:17;12.44;57.76
85176;SHT31;75548;42.444;27.488;2024-02-04T12:34:46;12.59;57.36
85176;SHT31;75548;42.444;27.488;2024-02-04T12:38:15;12.53;57.48
85176;SHT31;75548;42.444;27.488;2024-02-04T12:41:38;12.55;57.59
85176;SHT31;75548;42.444;27.488;2024-02-04T12:45:04;12.46;57.77
85176;SHT31;75548;42.444;27.488;2024-02-04T12:48:29;12.48;57.71
85176;SHT31;75548;42.444;27.488;2024-02-04T12:52:03;12.46;57.65
85176;SHT31;75548;42.444;27.488;2024-02-04T12:55:22;12.51;57.60
85176;SHT31;75548;42.444;27.488;2024-02-04T12:58:45;12.46;57.75
85176;SHT31;75548;42.444;27.488;2024-02-04T13:02:13;12.42;57.93
85176;SHT31;75548;42.444;27.488;2024-02-04T13:05:42;12.32;57.83
85176;SHT31;75548;42.444;27.488;2024-02-04T13:09:08;12.42;57.89
85176;SHT31;75548;42.444;27.488;2024-02-04T13:12:33;12.28;58.37
85176;SHT31;75548;42.444;27.488;2024-02-04T13:16:05;12.32;58.16
85176;SHT31;75548;42.444;27.488;2024-02-04T13:19:33;12.31;58.11
85176;SHT31;75548;42.444;27.488;2024-02-04T13:22:58;12.20;58.34
85176;SHT31;75548;42.444;27.488;2024-02-04T13:26:24;12.22;58.33
85176;SHT31;75548;42.444;27.488;2024-02-04T13:29:49;12.10;58.70
85176;SHT31;75548;42.444;27.488;2024-02-04T13:33:15;12.10;59.07
85176;SHT31;75548;42.444;27.488;2024-02-04T13:36:40;12.18;58.81
85176;SHT31;75548;42.444;27.488;2024-02-04T13:40:06;12.14;58.89
85176;SHT31;75548;42.444;27.488;2024-02-04T13:43:31;12.07;59.05
85176;SHT31;75548;42.444;27.488;2024-02-04T13:46:57;12.13;58.88
85176;SHT31;75548;42.444;27.488;2024-02-04T13:50:22;12.20;58.99
85176;SHT31;75548;42.444;27.488;2024-02-04T13:53:47;12.17;58.79
85176;SHT31;75548;42.444;27.488;2024-02-04T13:57:13;12.17;58.87
85176;SHT31;75548;42.444;27.488;2024-02-04T14:00:38;12.03;59.14
85176;SHT31;75548;42.444;27.488;2024-02-04T14:04:04;12.04;59.14
85176;SHT31;75548;42.444;27.488;2024-02-04T14:07:29;12.05;59.22
85176;SHT31;75548;42.444;27.488;2024-02-04T14:10:54;12.05;59.54
85176;SHT31;75548;42.444;27.488;2024-02-04T14:14:20;12.05;59.10
85176;SHT31;75548;42.444;27.488;2024-02-04T14:17:45;12.03;59.36
85176;SHT31;75548;42.444;27.488;2024-02-04T14:21:11;12.05;59.47
85176;SHT31;75548;42.444;27.488;2024-02-04T14:24:36;12.04;59.48
85176;SHT31;75548;42.444;27.488;2024-02-04T14:28:01;12.01;59.67
85176;SHT31;75548;42.444;27.488;2024-02-04T14:31:27;12.08;59.45
85176;SHT31;75548;42.444;27.488;2024-02-04T14:34:52;12.00;59.63
85176;SHT31;75548;42.444;27.488;2024-02-04T14:38:18;11.86;59.77
85176;SHT31;75548;42.444;27.488;2024-02-04T14:41:43;11.77;59.97
85176;SHT31;75548;42.444;27.488;2024-02-04T14:45:09;11.70;60.10
85176;SHT31;75548;42.444;27.488;2024-02-04T14:48:35;11.58;60.43
85176;SHT31;75548;42.444;27.488;2024-02-04T14:51:59;11.38;61.15
85176;SHT31;75548;42.444;27.488;2024-02-04T14:55:25;11.34;61.10
85176;SHT31;75548;42.444;27.488;2024-02-04T14:58:50;11.19;61.69
85176;SHT31;75548;42.444;27.488;2024-02-04T15:02:16;11.00;62.12
85176;SHT31;75548;42.444;27.488;2024-02-04T15:05:41;10.77;62.79
85176;SHT31;75548;42.444;27.488;2024-02-04T15:09:06;10.64;63.21
85176;SHT31;75548;42.444;27.488;2024-02-04T15:12:32;10.47;63.75
85176;SHT31;75548;42.444;27.488;2024-02-04T15:15:57;10.42;63.98
85176;SHT31;75548;42.444;27.488;2024-02-04T15:19:26;10.42;64.06
85176;SHT31;75548;42.444;27.488;2024-02-04T15:22:51;10.42;63.93
85176;SHT31;75548;42.444;27.488;2024-02-04T15:26:17;10.45;63.60
85176;SHT31;75548;42.444;27.488;2024-02-04T15:29:42;10.49;63.07
85176;SHT31;75548;42.444;27.488;2024-02-04T15:33:08;10.50;62.87
85176;SHT31;75548;42.444;27.488;2024-02-04T15:36:33;10.49;62.90
85176;SHT31;75548;42.444;27.488;2024-02-04T15:39:59;10.39;62.89
85176;SHT31;75548;42.444;27.488;2024-02-04T15:43:24;10.20;63.74
85176;SHT31;75548;42.444;27.488;2024-02-04T15:46:49;10.01;64.37
85176;SHT31;75548;42.444;27.488;2024-02-04T15:50:15;9.71;65.52
85176;SHT31;75548;42.444;27.488;2024-02-04T15:53:41;9.51;66.20
85176;SHT31;75548;42.444;27.488;2024-02-04T15:57:06;9.47;66.34
85176;SHT31;75548;42.444;27.488;2024-02-04T16:00:31;9.33;66.90
85176;SHT31;75548;42.444;27.488;2024-02-04T16:03:57;9.18;67.30
85176;SHT31;75548;42.444;27.488;2024-02-04T16:07:22;9.06;67.70
85176;SHT31;75548;42.444;27.488;2024-02-04T16:10:48;8.99;67.82
85176;SHT31;75548;42.444;27.488;2024-02-04T16:14:14;8.93;67.86
85176;SHT31;75548;42.444;27.488;2024-02-04T16:17:39;8.83;68.22
85176;SHT31;75548;42.444;27.488;2024-02-04T16:21:04;8.72;68.56
85176;SHT31;75548;42.444;27.488;2024-02-04T16:24:30;8.74;68.37
85176;SHT31;75548;42.444;27.488;2024-02-04T16:27:55;8.67;68.56
85176;SHT31;75548;42.444;27.488;2024-02-04T16:31:21;8.61;68.50
85176;SHT31;75548;42.444;27.488;2024-02-04T16:34:46;8.58;68.65
85176;SHT31;75548;42.444;27.488;2024-02-04T16:38:11;8.71;67.86
85176;SHT31;75548;42.444;27.488;2024-02-04T16:41:37;8.89;66.97
85176;SHT31;75548;42.444;27.488;2024-02-04T16:45:03;9.09;66.02
85176;SHT31;75548;42.444;27.488;2024-02-04T16:48:28;9.34;65.21
85176;SHT31;75548;42.444;27.488;2024-02-04T16:51:59;9.40;65.21
85176;SHT31;75548;42.444;27.488;2024-02-04T16:55:25;9.44;64.94
85176;SHT31;75548;42.444;27.488;2024-02-04T16:58:50;9.12;66.26
85176;SHT31;75548;42.444;27.488;2024-02-04T17:02:15;8.83;67.39
85176;SHT31;75548;42.444;27.488;2024-02-04T17:05:41;8.72;67.66
85176;SHT31;75548;42.444;27.488;2024-02-04T17:09:06;8.75;67.64
85176;SHT31;75548;42.444;27.488;2024-02-04T17:12:32;8.78;67.39
85176;SHT31;75548;42.444;27.488;2024-02-04T17:15:58;8.83;67.19
85176;SHT31;75548;42.444;27.488;2024-02-04T17:22:34;8.82;67.48
85176;SHT31;75548;42.444;27.488;2024-02-04T17:25:59;8.74;67.82
85176;SHT31;75548;42.444;27.488;2024-02-04T17:29:25;8.89;67.31
85176;SHT31;75548;42.444;27.488;2024-02-04T17:32:50;8.89;67.33
85176;SHT31;75548;42.444;27.488;2024-02-04T17:36:16;9.05;66.73
85176;SHT31;75548;42.444;27.488;2024-02-04T17:39:41;9.12;66.45
85176;SHT31;75548;42.444;27.488;2024-02-04T17:43:06;8.99;67.17
85176;SHT31;75548;42.444;27.488;2024-02-04T17:46:32;8.92;67.39
85176;SHT31;75548;42.444;27.488;2024-02-04T17:49:57;8.95;67.26
85176;SHT31;75548;42.444;27.488;2024-02-04T17:53:23;8.92;67.37
85176;SHT31;75548;42.444;27.488;2024-02-04T17:56:48;9.02;67.05
85176;SHT31;75548;42.444;27.488;2024-02-04T18:00:14;9.08;66.83
85176;SHT31;75548;42.444;27.488;2024-02-04T18:03:39;8.93;67.38
85176;SHT31;75548;42.444;27.488;2024-02-04T18:07:04;8.91;67.53
85176;SHT31;75548;42.444;27.488;2024-02-04T18:10:30;8.79;67.81
85176;SHT31;75548;42.444;27.488;2024-02-04T18:13:55;8.75;67.92
85176;SHT31;75548;42.444;27.488;2024-02-04T18:17:21;8.64;68.03
85176;SHT31;75548;42.444;27.488;2024-02-04T18:20:46;8.54;68.37
85176;SHT31;75548;42.444;27.488;2024-02-04T18:24:12;8.34;69.03
85176;SHT31;75548;42.444;27.488;2024-02-04T18:27:37;8.30;69.20
85176;SHT31;75548;42.444;27.488;2024-02-04T18:31:02;8.26;69.21
85176;SHT31;75548;42.444;27.488;2024-02-04T18:34:28;8.16;69.49
85176;SHT31;75548;42.444;27.488;2024-02-04T18:37:53;8.14;69.66
85176;SHT31;75548;42.444;27.488;2024-02-04T18:41:19;8.16;69.65
85176;SHT31;75548;42.444;27.488;2024-02-04T18:44:47;8.22;69.77
85176;SHT31;75548;42.444;27.488;2024-02-04T18:48:13;8.23;69.70
85176;SHT31;75548;42.444;27.488;2024-02-04T18:51:38;8.17;69.90
85176;SHT31;75548;42.444;27.488;2024-02-04T18:55:03;8.24;69.78
85176;SHT31;75548;42.444;27.488;2024-02-04T18:58:09;8.22;69.82
85176;SHT31;75548;42.444;27.488;2024-02-04T19:00:35;8.20;69.90
85176;SHT31;75548;42.444;27.488;2024-02-04T19:03:00;8.22;69.78
85176;SHT31;75548;42.444;27.488;2024-02-04T19:05:26;8.19;69.63
85176;SHT31;75548;42.444;27.488;2024-02-04T19:07:52;8.19;69.59
85176;SHT31;75548;42.444;27.488;2024-02-04T19:10:18;8.12;69.67
85176;SHT31;75548;42.444;27.488;2024-02-04T19:12:46;8.16;69.71
85176;SHT31;75548;42.444;27.488;2024-02-04T19:15:12;8.12;69.78
85176;SHT31;75548;42.444;27.488;2024-02-04T19:17:39;8.13;69.84
85176;SHT31;75548;42.444;27.488;2024-02-04T19:20:25;8.14;70.09
85176;SHT31;75548;42.444;27.488;2024-02-04T19:23:50;8.34;69.62
85176;SHT31;75548;42.444;27.488;2024-02-04T19:27:16;8.37;69.49
85176;SHT31;75548;42.444;27.488;2024-02-04T19:30:41;8.48;69.25
85176;SHT31;75548;42.444;27.488;2024-02-04T19:34:06;8.48;69.25
85176;SHT31;75548;42.444;27.488;2024-02-04T19:37:32;8.36;69.66
85176;SHT31;75548;42.444;27.488;2024-02-04T19:40:57;8.30;69.93
85176;SHT31;75548;42.444;27.488;2024-02-04T19:44:23;8.16;70.29
85176;SHT31;75548;42.444;27.488;2024-02-04T19:47:48;8.02;70.96
85176;SHT31;75548;42.444;27.488;2024-02-04T19:51:14;7.74;71.82
85176;SHT31;75548;42.444;27.488;2024-02-04T19:54:39;7.64;72.42
85176;SHT31;75548;42.444;27.488;2024-02-04T19:58:04;7.58;72.61
85176;SHT31;75548;42.444;27.488;2024-02-04T20:01:30;7.51;72.77
85176;SHT31;75548;42.444;27.488;2024-02-04T20:04:55;7.51;72.60
85176;SHT31;75548;42.444;27.488;2024-02-04T20:08:21;7.59;72.30
85176;SHT31;75548;42.444;27.488;2024-02-04T20:11:46;7.58;72.35
85176;SHT31;75548;42.444;27.488;2024-02-04T20:15:11;7.47;72.57
85176;SHT31;75548;42.444;27.488;2024-02-04T20:18:37;7.51;72.36
85176;SHT31;75548;42.444;27.488;2024-02-04T20:22:03;7.50;72.52
85176;SHT31;75548;42.444;27.488;2024-02-04T20:25:28;7.51;72.52
85176;SHT31;75548;42.444;27.488;2024-02-04T20:28:53;7.48;72.73
85176;SHT31;75548;42.444;27.488;2024-02-04T20:32:18;7.44;72.86
85176;SHT31;75548;42.444;27.488;2024-02-04T20:35:44;7.34;73.33
85176;SHT31;75548;42.444;27.488;2024-02-04T20:39:09;7.35;73.25
85176;SHT31;75548;42.444;27.488;2024-02-04T20:42:35;7.32;73.37
85176;SHT31;75548;42.444;27.488;2024-02-04T20:46:00;7.43;72.92
85176;SHT31;75548;42.444;27.488;2024-02-04T20:49:25;7.48;72.61
85176;SHT31;75548;42.444;27.488;2024-02-04T20:52:51;7.64;72.07
85176;SHT31;75548;42.444;27.488;2024-02-04T20:56:16;7.71;71.80
85176;SHT31;75548;42.444;27.488;2024-02-04T20:59:42;7.71;71.82
85176;SHT31;75548;42.444;27.488;2024-02-04T21:03:07;7.54;72.38
85176;SHT31;75548;42.444;27.488;2024-02-04T21:06:35;7.28;73.09
85176;SHT31;75548;42.444;27.488;2024-02-04T21:10:00;7.10;73.90
85176;SHT31;75548;42.444;27.488;2024-02-04T21:13:26;7.11;74.25
85176;SHT31;75548;42.444;27.488;2024-02-04T21:16:51;7.04;74.45
85176;SHT31;75548;42.444;27.488;2024-02-04T21:20:17;6.99;74.53
85176;SHT31;75548;42.444;27.488;2024-02-04T21:23:42;7.07;74.37
85176;SHT31;75548;42.444;27.488;2024-02-04T21:27:07;7.13;74.08
85176;SHT31;75548;42.444;27.488;2024-02-04T21:30:33;7.21;73.88
85176;SHT31;75548;42.444;27.488;2024-02-04T21:33:58;7.21;73.91
85176;SHT31;75548;42.444;27.488;2024-02-04T21:37:24;7.26;73.65